Time;durP1;ratioP1;P1;durP2;ratioP2;P2;SDS_P1;SDS_P2;PMS_P1;PMS_P2;Temp;Humidity;BMP_temperature;BMP_pressure;BME280_temperature;BME280_humidity;BME280_pressure;Samples;Min_cycle;Max_cycle;Signal;HPM_P1;HPM_P2
2022/11/27 00:01:16;;;;;;;1.80;1.27;;;7.50;99.90;;;;;;5035430;28;20285;-94
2022/11/27 00:03:42;;;;;;;1.80;1.57;;;7.50;99.90;;;;;;5032368;28;20337;-92
2022/11/27 00:06:12;;;;;;;1.67;1.40;;;7.60;99.90;;;;;;5035341;28;20288;-92
2022/11/27 00:08:37;;;;;;;3.37;3.13;;;7.50;99.90;;;;;;5032723;28;20261;-92
2022/11/27 00:11:09;;;;;;;3.00;2.90;;;7.60;99.90;;;;;;5001221;28;20687;-92
2022/11/27 00:13:35;;;;;;;1.10;1.10;;;7.60;99.90;;;;;;5035122;28;20309;-92
2022/11/27 00:16:02;;;;;;;5.60;1.83;;;7.60;99.90;;;;;;5032385;28;20550;-93
2022/11/27 00:18:28;;;;;;;4.97;2.57;;;7.60;99.90;;;;;;4999956;28;20193;-93
2022/11/27 00:21:04;;;;;;;1.67;1.57;;;7.60;99.90;;;;;;5031184;28;20183;-95
2022/11/27 00:23:33;;;;;;;2.77;2.23;;;7.60;99.90;;;;;;5032886;28;20213;-92
2022/11/27 00:25:59;;;;;;;3.60;3.37;;;7.60;99.90;;;;;;5031423;28;20217;-93
2022/11/27 00:28:25;;;;;;;4.07;3.67;;;7.60;99.90;;;;;;5000292;28;20729;-92
2022/11/27 00:30:50;;;;;;;2.47;1.80;;;7.60;99.90;;;;;;5018961;28;20206;-93
2022/11/27 00:33:16;;;;;;;1.17;1.07;;;7.50;99.90;;;;;;5016659;28;20186;-93
2022/11/27 00:35:42;;;;;;;5.00;1.80;;;7.50;99.90;;;;;;5018309;28;20206;-91
2022/11/27 00:38:08;;;;;;;2.37;2.23;;;7.60;99.90;;;;;;4998620;28;20222;-93
2022/11/27 00:40:34;;;;;;;2.10;2.00;;;7.50;99.90;;;;;;5014544;28;20214;-91
2022/11/27 00:43:00;;;;;;;3.03;2.70;;;7.50;99.90;;;;;;5018877;28;20291;-93
2022/11/27 00:45:26;;;;;;;1.63;1.20;;;7.50;99.90;;;;;;5001436;28;20308;-92
2022/11/27 00:47:52;;;;;;;3.17;2.87;;;7.50;99.90;;;;;;5001731;28;20272;-92
2022/11/27 00:50:18;;;;;;;11.17;1.83;;;7.50;99.90;;;;;;5003221;28;20225;-93
2022/11/27 00:52:44;;;;;;;6.53;1.60;;;7.50;99.90;;;;;;5015249;28;20209;-91
2022/11/27 00:55:11;;;;;;;4.70;2.93;;;7.50;99.90;;;;;;5017880;28;20232;-92
2022/11/27 00:57:37;;;;;;;2.77;1.30;;;7.50;99.90;;;;;;4998614;28;20245;-93
2022/11/27 01:00:04;;;;;;;2.63;1.63;;;7.50;99.90;;;;;;5017478;28;20193;-93
2022/11/27 01:02:30;;;;;;;8.40;2.30;;;7.50;99.90;;;;;;5032202;28;20267;-91
2022/11/27 01:04:56;;;;;;;0.80;0.80;;;7.50;99.90;;;;;;5017399;28;20218;-92
2022/11/27 01:07:22;;;;;;;1.37;1.27;;;7.40;99.90;;;;;;5003219;28;20296;-91
2022/11/27 01:09:47;;;;;;;5.70;1.53;;;7.40;99.90;;;;;;5020510;28;20313;-92
2022/11/27 01:12:13;;;;;;;1.73;1.40;;;7.40;99.90;;;;;;5020992;28;20269;-92
2022/11/27 01:14:39;;;;;;;3.77;1.20;;;7.40;99.90;;;;;;5018027;28;20225;-95
2022/11/27 01:17:05;;;;;;;8.03;1.37;;;7.40;99.90;;;;;;5003866;28;20207;-95
2022/11/27 01:19:30;;;;;;;3.13;1.70;;;7.40;99.90;;;;;;5035268;28;20216;-92
2022/11/27 01:21:56;;;;;;;0.60;0.60;;;7.40;99.90;;;;;;5003314;28;20291;-92
2022/11/27 01:24:22;;;;;;;1.57;1.23;;;7.50;99.90;;;;;;5017179;28;20218;-94
2022/11/27 01:26:48;;;;;;;1.27;1.20;;;7.50;99.90;;;;;;5000888;28;20240;-92
2022/11/27 01:29:13;;;;;;;1.03;1.03;;;7.50;99.90;;;;;;4999562;28;20683;-94
2022/11/27 01:31:39;;;;;;;7.23;1.60;;;7.50;99.90;;;;;;5003265;28;20218;-93
2022/11/27 01:34:12;;;;;;;0.77;0.77;;;7.60;99.90;;;;;;5002350;28;20210;-91
2022/11/27 01:36:37;;;;;;;2.37;2.07;;;7.60;99.90;;;;;;5033136;28;20284;-92
2022/11/27 01:39:04;;;;;;;1.50;1.30;;;7.60;99.90;;;;;;5006177;28;20186;-93
2022/11/27 01:41:35;;;;;;;2.03;1.93;;;7.60;99.90;;;;;;5048977;28;20221;-92
2022/11/27 01:44:23;;;;;;;2.00;0.60;;;7.60;99.90;;;;;;5035748;28;20217;-92
2022/11/27 01:47:10;;;;;;;11.00;1.67;;;7.60;99.90;;;;;;5034302;28;20237;-93
2022/11/27 01:49:44;;;;;;;6.07;2.50;;;7.60;99.90;;;;;;5052658;28;20229;-93
2022/11/27 01:52:30;;;;;;;2.50;2.30;;;7.70;99.90;;;;;;5034685;28;20357;-92
2022/11/27 01:55:04;;;;;;;1.37;1.10;;;7.70;99.90;;;;;;5034530;28;20298;-95
2022/11/27 01:57:40;;;;;;;1.40;1.30;;;7.70;99.90;;;;;;5035851;28;20178;-94
2022/11/27 02:00:08;;;;;;;2.03;1.77;;;7.70;99.90;;;;;;5034962;28;20692;-93
2022/11/27 02:02:34;;;;;;;1.27;1.17;;;7.70;99.90;;;;;;5034636;28;20210;-92
2022/11/27 02:05:00;;;;;;;1.47;1.40;;;7.70;99.90;;;;;;5018757;28;20233;-92
2022/11/27 02:07:26;;;;;;;2.17;1.33;;;7.70;99.90;;;;;;5020909;28;20218;-94
2022/11/27 02:09:52;;;;;;;1.10;0.93;;;7.60;99.90;;;;;;5018166;28;20222;-93
2022/11/27 02:12:23;;;;;;;3.10;1.30;;;7.60;99.90;;;;;;5003595;28;20596;-94
2022/11/27 02:15:15;;;;;;;1.50;1.43;;;7.60;99.90;;;;;;5037395;28;20194;-94
2022/11/27 02:17:56;;;;;;;2.67;2.47;;;7.60;99.90;;;;;;5034620;28;20225;-92
2022/11/27 02:20:35;;;;;;;1.00;0.97;;;7.70;99.90;;;;;;5032083;28;20301;-91
2022/11/27 02:23:13;;;;;;;1.90;1.57;;;7.70;99.90;;;;;;5036387;28;20666;-91
2022/11/27 02:25:48;;;;;;;2.70;1.57;;;7.70;99.90;;;;;;5034146;28;20225;-94
2022/11/27 02:28:51;;;;;;;10.53;1.40;;;7.70;99.90;;;;;;5037892;28;20263;-95
2022/11/27 02:31:39;;;;;;;2.67;2.40;;;7.70;99.90;;;;;;5030495;28;20210;-92
2022/11/27 02:34:18;;;;;;;1.23;1.13;;;7.70;99.90;;;;;;5034657;28;20272;-95
2022/11/27 02:36:51;;;;;;;2.90;1.50;;;7.60;99.90;;;;;;5036095;28;20218;-96
2022/11/27 02:39:24;;;;;;;4.23;1.87;;;7.70;99.90;;;;;;5032876;28;20278;-94
2022/11/27 02:41:56;;;;;;;2.93;1.50;;;7.70;99.90;;;;;;5032342;28;20693;-94
2022/11/27 02:44:23;;;;;;;1.00;0.70;;;7.70;99.90;;;;;;5031433;28;20875;-94
2022/11/27 02:46:49;;;;;;;0.80;0.80;;;7.70;99.90;;;;;;5000049;28;20258;-92
2022/11/27 02:49:17;;;;;;;9.67;0.53;;;7.70;99.90;;;;;;5010203;28;20530;-91
2022/11/27 02:51:56;;;;;;;1.07;0.83;;;7.70;99.90;;;;;;5015943;28;20241;-92
2022/11/27 02:54:27;;;;;;;0.60;0.60;;;7.70;99.90;;;;;;5035013;28;20194;-94
2022/11/27 02:56:54;;;;;;;3.93;1.70;;;7.70;99.90;;;;;;5030072;28;20194;-93
2022/11/27 02:59:23;;;;;;;1.13;1.07;;;7.70;99.90;;;;;;5032625;28;20576;-92
2022/11/27 03:01:55;;;;;;;1.77;1.67;;;7.60;99.90;;;;;;5030954;28;20211;-91
2022/11/27 03:04:27;;;;;;;1.93;1.13;;;7.70;99.90;;;;;;5036281;28;20218;-91
2022/11/27 03:07:02;;;;;;;2.17;1.13;;;7.70;99.90;;;;;;5043198;28;20221;-91
2022/11/27 03:09:34;;;;;;;2.30;1.77;;;7.60;99.90;;;;;;5031944;28;20233;-93
2022/11/27 03:12:03;;;;;;;2.63;1.53;;;7.60;99.90;;;;;;5051648;28;20178;-93
2022/11/27 03:14:29;;;;;;;1.77;1.67;;;7.60;99.90;;;;;;5033847;28;20218;-92
2022/11/27 03:17:27;;;;;;;4.60;3.00;;;7.60;99.90;;;;;;5018507;28;20595;-95
2022/11/27 03:20:05;;;;;;;0.33;0.33;;;7.60;99.90;;;;;;5032900;28;20333;-92
2022/11/27 03:22:30;;;;;;;1.13;1.07;;;7.60;99.90;;;;;;5034435;28;20229;-94
2022/11/27 03:24:58;;;;;;;3.50;1.03;;;7.60;99.90;;;;;;5000057;28;20584;-94
2022/11/27 03:27:32;;;;;;;1.17;1.17;;;7.60;99.90;;;;;;5037741;28;20614;-94
2022/11/27 03:30:00;;;;;;;3.57;1.43;;;7.60;99.90;;;;;;5031251;28;20235;-94
2022/11/27 03:32:28;;;;;;;0.80;0.80;;;7.60;99.90;;;;;;5053405;28;20237;-95
2022/11/27 03:34:54;;;;;;;1.10;1.10;;;7.60;99.90;;;;;;5020565;28;20250;-95
2022/11/27 03:37:22;;;;;;;1.37;1.17;;;7.50;99.90;;;;;;5007891;28;20211;-95
2022/11/27 03:39:48;;;;;;;3.07;1.57;;;7.60;99.90;;;;;;4997219;28;20224;-94
2022/11/27 03:42:57;;;;;;;1.23;1.13;;;7.60;99.90;;;;;;5019180;28;20258;-94
2022/11/27 03:45:59;;;;;;;2.20;1.10;;;7.50;99.90;;;;;;5010475;28;20718;-94
2022/11/27 03:48:47;;;;;;;1.60;1.50;;;7.50;99.90;;;;;;5033875;28;20193;-95
2022/11/27 03:51:21;;;;;;;1.67;0.73;;;7.50;99.90;;;;;;5034229;28;20218;-95
2022/11/27 03:54:21;;;;;;;1.93;1.13;;;7.50;99.90;;;;;;5027438;28;20209;-93
2022/11/27 03:57:28;;;;;;;2.87;1.40;;;7.50;99.90;;;;;;5047464;28;20218;-94
2022/11/27 03:59:57;;;;;;;1.60;1.50;;;7.50;99.90;;;;;;4975331;28;20239;-94
2022/11/27 04:02:37;;;;;;;9.90;1.53;;;7.40;99.90;;;;;;4992665;28;20732;-94
2022/11/27 04:05:05;;;;;;;2.03;1.43;;;7.50;99.90;;;;;;5014921;28;20222;-95
2022/11/27 04:07:31;;;;;;;1.13;1.03;;;7.50;99.90;;;;;;4999992;28;20616;-94
2022/11/27 04:09:56;;;;;;;0.60;0.60;;;7.50;99.90;;;;;;4998807;28;20543;-94
2022/11/27 04:12:22;;;;;;;1.67;1.57;;;7.50;99.90;;;;;;5000791;28;20489;-94
2022/11/27 04:14:48;;;;;;;3.50;2.40;;;7.50;99.90;;;;;;5015170;28;20201;-94
2022/11/27 04:17:13;;;;;;;5.43;1.53;;;7.50;99.90;;;;;;4998327;28;20316;-94
2022/11/27 04:19:39;;;;;;;3.80;1.00;;;7.40;99.90;;;;;;4997168;28;20668;-94
2022/11/27 04:22:05;;;;;;;1.23;1.13;;;7.40;99.90;;;;;;5000298;28;20252;-94
2022/11/27 04:24:30;;;;;;;0.50;0.50;;;7.40;99.90;;;;;;4999085;28;20214;-94
2022/11/27 04:26:56;;;;;;;0.53;0.53;;;7.40;99.90;;;;;;5014376;28;20217;-95
2022/11/27 04:29:22;;;;;;;18.20;2.30;;;7.40;99.90;;;;;;5015283;28;20218;-96
2022/11/27 04:31:48;;;;;;;1.67;1.57;;;7.30;99.90;;;;;;5012705;28;20282;-93
2022/11/27 04:34:13;;;;;;;2.67;2.33;;;7.30;99.90;;;;;;4995920;28;20553;-93
2022/11/27 04:36:40;;;;;;;2.10;1.93;;;7.30;99.90;;;;;;4997611;28;20750;-94
2022/11/27 04:39:06;;;;;;;2.10;1.87;;;7.30;99.90;;;;;;5004031;28;20201;-93
2022/11/27 04:41:32;;;;;;;5.90;1.30;;;7.30;99.90;;;;;;4995221;28;20215;-93
2022/11/27 04:43:58;;;;;;;9.30;2.33;;;7.30;99.90;;;;;;4996331;28;20210;-93
2022/11/27 04:46:23;;;;;;;12.07;2.30;;;7.30;99.90;;;;;;4998881;28;20238;-94
2022/11/27 04:48:49;;;;;;;4.90;2.03;;;7.30;99.90;;;;;;4999785;28;20231;-94
2022/11/27 04:51:15;;;;;;;1.97;1.87;;;7.30;99.90;;;;;;5003524;28;20593;-94
2022/11/27 04:53:41;;;;;;;2.37;2.17;;;7.30;99.90;;;;;;4994970;28;20264;-94
2022/11/27 04:56:06;;;;;;;2.10;2.00;;;7.30;99.90;;;;;;4997181;28;20210;-93
2022/11/27 04:58:32;;;;;;;1.63;1.33;;;7.30;99.90;;;;;;4997903;28;20221;-93
2022/11/27 05:00:58;;;;;;;1.17;1.10;;;7.30;99.90;;;;;;4997172;28;20627;-93
2022/11/27 05:03:24;;;;;;;0.97;0.80;;;7.30;99.90;;;;;;4999304;28;20183;-94
2022/11/27 05:05:55;;;;;;;4.87;1.53;;;7.30;99.90;;;;;;5015070;28;20404;-93
2022/11/27 05:08:21;;;;;;;2.87;1.73;;;7.30;99.90;;;;;;5030068;28;20289;-94
2022/11/27 05:10:56;;;;;;;2.10;1.73;;;7.30;99.90;;;;;;4998673;28;20282;-93
2022/11/27 05:13:22;;;;;;;1.53;1.47;;;7.30;99.90;;;;;;5004239;28;20241;-93
2022/11/27 05:15:48;;;;;;;1.97;1.87;;;7.30;99.90;;;;;;5017024;28;20558;-93
2022/11/27 05:18:13;;;;;;;1.37;1.20;;;7.30;99.90;;;;;;4998759;28;20198;-94
2022/11/27 05:20:39;;;;;;;1.63;1.43;;;7.30;99.90;;;;;;4999348;28;20261;-94
2022/11/27 05:23:05;;;;;;;1.00;1.00;;;7.30;99.90;;;;;;4999895;28;20214;-93
2022/11/27 05:25:30;;;;;;;3.73;1.93;;;7.30;99.90;;;;;;5015986;28;20279;-93
2022/11/27 05:27:56;;;;;;;1.90;1.33;;;7.30;99.90;;;;;;4998880;28;20217;-93
2022/11/27 05:30:22;;;;;;;3.07;2.47;;;7.30;99.90;;;;;;5000945;28;20179;-93
2022/11/27 05:32:48;;;;;;;2.07;1.90;;;7.30;99.90;;;;;;5000135;28;20201;-94
2022/11/27 05:35:13;;;;;;;2.03;1.13;;;7.30;99.90;;;;;;5017733;28;20225;-93
2022/11/27 05:37:39;;;;;;;6.33;2.27;;;7.30;99.90;;;;;;4998824;28;20223;-94
2022/11/27 05:40:06;;;;;;;2.30;1.80;;;7.30;99.90;;;;;;4998349;28;20217;-93
2022/11/27 05:42:31;;;;;;;0.67;0.67;;;7.30;99.90;;;;;;5034314;28;20650;-94
2022/11/27 05:44:57;;;;;;;1.90;1.80;;;7.30;99.90;;;;;;5015710;28;20238;-93
2022/11/27 05:47:23;;;;;;;1.30;0.60;;;7.30;99.90;;;;;;4999345;28;20245;-93
2022/11/27 05:49:49;;;;;;;3.93;2.27;;;7.30;99.90;;;;;;4994639;28;20219;-93
2022/11/27 05:52:14;;;;;;;1.20;1.20;;;7.30;99.90;;;;;;4999731;28;20211;-93
2022/11/27 05:54:40;;;;;;;2.37;1.70;;;7.30;99.90;;;;;;5002801;28;20232;-94
2022/11/27 05:57:06;;;;;;;1.57;1.47;;;7.30;99.90;;;;;;5001710;28;20194;-94
2022/11/27 05:59:32;;;;;;;1.77;1.47;;;7.30;99.90;;;;;;5004704;28;20214;-93
2022/11/27 06:01:57;;;;;;;1.67;1.57;;;7.20;99.90;;;;;;5017027;28;20210;-93
2022/11/27 06:04:23;;;;;;;5.70;3.20;;;7.30;99.90;;;;;;5001342;28;20201;-93
2022/11/27 06:06:49;;;;;;;2.33;1.63;;;7.30;99.90;;;;;;5005027;28;20280;-94
2022/11/27 06:09:15;;;;;;;1.40;1.17;;;7.30;99.90;;;;;;5002805;28;20571;-93
2022/11/27 06:11:41;;;;;;;7.67;3.27;;;7.30;99.90;;;;;;5017395;28;20225;-93
2022/11/27 06:14:08;;;;;;;1.73;1.63;;;7.30;99.90;;;;;;5017112;28;20205;-94
2022/11/27 06:16:35;;;;;;;2.10;1.83;;;7.30;99.90;;;;;;5017299;28;20577;-93
2022/11/27 06:19:01;;;;;;;0.87;0.87;;;7.30;99.90;;;;;;5018470;28;20225;-94
2022/11/27 06:21:26;;;;;;;1.30;1.30;;;7.30;99.90;;;;;;5015925;28;20191;-95
2022/11/27 06:23:57;;;;;;;3.13;2.63;;;7.30;99.90;;;;;;5003007;28;20243;-94
2022/11/27 06:26:29;;;;;;;0.43;0.43;;;7.30;99.90;;;;;;5015549;28;20651;-93
2022/11/27 06:28:56;;;;;;;0.80;0.80;;;7.30;99.90;;;;;;5035730;28;20309;-95
2022/11/27 06:31:26;;;;;;;2.00;1.90;;;7.30;99.90;;;;;;5035458;28;20214;-94
2022/11/27 06:33:53;;;;;;;1.60;1.50;;;7.30;99.90;;;;;;5048407;28;20664;-93
2022/11/27 06:36:20;;;;;;;1.33;1.30;;;7.30;99.90;;;;;;5016413;28;20210;-94
2022/11/27 06:38:46;;;;;;;4.70;2.10;;;7.40;99.90;;;;;;5001765;28;20630;-95
2022/11/27 06:41:16;;;;;;;2.03;1.77;;;7.30;99.90;;;;;;5017608;28;20256;-94
2022/11/27 06:43:42;;;;;;;1.57;1.47;;;7.40;99.90;;;;;;5032060;28;20222;-94
2022/11/27 06:46:12;;;;;;;2.47;1.43;;;7.30;99.90;;;;;;5017077;28;20233;-94
2022/11/27 06:48:38;;;;;;;0.80;0.80;;;7.40;99.90;;;;;;5033187;28;20381;-94
2022/11/27 06:51:06;;;;;;;1.27;0.97;;;7.40;99.90;;;;;;5016688;28;20211;-94
2022/11/27 06:53:36;;;;;;;0.90;0.90;;;7.40;99.90;;;;;;5035291;28;20244;-93
2022/11/27 06:56:04;;;;;;;0.90;0.90;;;7.40;99.90;;;;;;5016031;28;20337;-95
2022/11/27 06:58:30;;;;;;;0.90;0.90;;;7.30;99.90;;;;;;5031715;28;20233;-94
2022/11/27 07:01:01;;;;;;;3.37;1.90;;;7.40;99.90;;;;;;4999196;28;20203;-93
2022/11/27 07:03:27;;;;;;;1.10;1.10;;;7.40;99.90;;;;;;5032175;28;20524;-94
2022/11/27 07:05:52;;;;;;;1.33;1.03;;;7.30;99.90;;;;;;5018524;28;20264;-94
2022/11/27 07:08:19;;;;;;;3.33;1.33;;;7.40;99.90;;;;;;5014899;28;20557;-94
2022/11/27 07:10:44;;;;;;;1.60;1.23;;;7.40;99.90;;;;;;5016217;28;20261;-94
2022/11/27 07:13:10;;;;;;;1.67;1.57;;;7.40;99.90;;;;;;5029338;28;20691;-94
2022/11/27 07:15:36;;;;;;;1.57;1.47;;;7.40;99.90;;;;;;4999578;28;20217;-95
2022/11/27 07:18:02;;;;;;;2.93;1.40;;;7.40;99.90;;;;;;5003670;28;20191;-94
2022/11/27 07:20:28;;;;;;;1.20;1.10;;;7.40;99.90;;;;;;5017598;28;20264;-93
2022/11/27 07:22:54;;;;;;;0.57;0.57;;;7.40;99.90;;;;;;5016664;28;20214;-93
2022/11/27 07:25:20;;;;;;;1.60;0.70;;;7.40;99.90;;;;;;5000832;28;20949;-95
2022/11/27 07:27:47;;;;;;;2.17;1.53;;;7.40;99.90;;;;;;4999748;28;20222;-93
2022/11/27 07:30:19;;;;;;;1.40;1.30;;;7.40;99.90;;;;;;5008708;28;20286;-96
2022/11/27 07:32:45;;;;;;;1.43;1.33;;;7.40;99.90;;;;;;5024591;28;20213;-96
2022/11/27 07:35:10;;;;;;;12.33;1.53;;;7.30;99.90;;;;;;5020661;28;20793;-94
2022/11/27 07:37:36;;;;;;;2.27;1.37;;;7.40;99.90;;;;;;5027871;28;20252;-93
2022/11/27 07:40:03;;;;;;;1.13;1.03;;;7.40;99.90;;;;;;5038381;28;20210;-96
2022/11/27 07:42:29;;;;;;;1.73;1.23;;;7.40;99.90;;;;;;5037502;28;20278;-95
2022/11/27 07:44:55;;;;;;;2.47;2.23;;;7.40;99.90;;;;;;5031620;28;20659;-95
2022/11/27 07:47:21;;;;;;;1.63;1.53;;;7.30;99.90;;;;;;5008313;28;20210;-94
2022/11/27 07:49:47;;;;;;;4.80;1.87;;;7.30;99.90;;;;;;5035677;28;20272;-94
2022/11/27 07:52:12;;;;;;;2.77;1.27;;;7.40;99.90;;;;;;5036915;28;20238;-95
2022/11/27 07:54:38;;;;;;;0.90;0.73;;;7.40;99.90;;;;;;5036868;28;20224;-94
2022/11/27 07:57:05;;;;;;;1.73;1.63;;;7.30;99.90;;;;;;5025919;28;20682;-95
2022/11/27 07:59:31;;;;;;;2.97;1.50;;;7.40;99.90;;;;;;5002506;28;20237;-93
2022/11/27 08:01:57;;;;;;;1.17;0.93;;;7.30;99.90;;;;;;5019733;28;20233;-93
2022/11/27 08:04:23;;;;;;;0.60;0.60;;;7.30;99.90;;;;;;5004781;28;20267;-93
2022/11/27 08:06:49;;;;;;;2.77;1.77;;;7.30;99.90;;;;;;5017029;28;20590;-93
2022/11/27 08:09:15;;;;;;;3.27;0.63;;;7.30;99.90;;;;;;5015555;28;20187;-92
2022/11/27 08:11:40;;;;;;;0.97;0.93;;;7.30;99.90;;;;;;5031598;28;20721;-94
2022/11/27 08:14:07;;;;;;;2.10;1.00;;;7.20;99.90;;;;;;5016638;28;20255;-93
2022/11/27 08:16:34;;;;;;;1.03;0.93;;;7.20;99.90;;;;;;5031211;28;20214;-94
2022/11/27 08:19:00;;;;;;;1.20;0.90;;;7.20;99.90;;;;;;5014485;28;21150;-93
2022/11/27 08:21:27;;;;;;;2.83;1.33;;;7.20;99.90;;;;;;5031957;28;20217;-92
2022/11/27 08:23:54;;;;;;;0.80;0.80;;;7.10;99.90;;;;;;5033561;28;20182;-95
2022/11/27 08:26:20;;;;;;;3.83;1.50;;;7.10;99.90;;;;;;5033231;28;20222;-93
2022/11/27 08:28:46;;;;;;;1.90;1.13;;;7.20;99.90;;;;;;5016622;28;20383;-94
2022/11/27 08:31:13;;;;;;;1.90;1.80;;;7.10;99.90;;;;;;5033201;28;20263;-93
2022/11/27 08:33:39;;;;;;;5.03;3.37;;;7.10;99.90;;;;;;5031890;28;20367;-94
2022/11/27 08:36:05;;;;;;;1.53;0.83;;;7.10;99.90;;;;;;5029519;28;20190;-95
2022/11/27 08:38:31;;;;;;;3.00;1.63;;;7.20;99.90;;;;;;5016107;28;20255;-93
2022/11/27 08:41:00;;;;;;;1.20;0.90;;;7.10;99.90;;;;;;5013787;28;20312;-94
2022/11/27 08:43:26;;;;;;;0.77;0.77;;;7.20;99.90;;;;;;5029457;28;20260;-92
2022/11/27 08:45:53;;;;;;;3.53;1.80;;;7.20;99.90;;;;;;5028561;28;20264;-92
2022/11/27 08:48:19;;;;;;;2.67;1.67;;;7.10;99.90;;;;;;5033941;28;20691;-93
2022/11/27 08:50:45;;;;;;;1.00;0.93;;;7.20;99.90;;;;;;5034493;28;20243;-93
2022/11/27 08:53:11;;;;;;;1.13;1.13;;;7.20;99.90;;;;;;5035366;28;20582;-95
2022/11/27 08:55:37;;;;;;;1.90;1.80;;;7.20;99.90;;;;;;4999438;28;20481;-94
2022/11/27 08:58:03;;;;;;;2.77;2.10;;;7.20;99.90;;;;;;4995989;28;20214;-95
2022/11/27 09:00:30;;;;;;;1.03;0.73;;;7.20;99.90;;;;;;5017014;28;20654;-95
2022/11/27 09:02:58;;;;;;;0.83;0.83;;;7.20;99.90;;;;;;5017362;28;20231;-95
2022/11/27 09:05:25;;;;;;;1.00;0.90;;;7.20;99.90;;;;;;5035547;28;20218;-94
2022/11/27 09:07:51;;;;;;;1.40;1.40;;;7.20;99.90;;;;;;5009614;28;20209;-93
2022/11/27 09:10:20;;;;;;;3.83;2.37;;;7.20;99.90;;;;;;5029901;28;20218;-93
2022/11/27 09:12:48;;;;;;;4.13;2.57;;;7.20;99.90;;;;;;5034073;28;20213;-95
2022/11/27 09:15:14;;;;;;;0.90;0.87;;;7.20;99.90;;;;;;5034824;28;20170;-94
2022/11/27 09:17:40;;;;;;;4.07;3.10;;;7.20;99.90;;;;;;5031648;28;20570;-94
2022/11/27 09:20:08;;;;;;;3.10;1.87;;;7.20;99.90;;;;;;5017175;28;20230;-94
2022/11/27 09:22:34;;;;;;;3.40;1.57;;;7.20;99.90;;;;;;5033868;28;20231;-93
2022/11/27 09:25:02;;;;;;;2.13;1.80;;;7.30;99.90;;;;;;5003045;28;20664;-94
2022/11/27 09:27:28;;;;;;;1.57;1.47;;;7.30;99.90;;;;;;4997267;28;20186;-95
2022/11/27 09:29:53;;;;;;;0.90;0.90;;;7.30;99.90;;;;;;5038992;28;20186;-94
2022/11/27 09:32:21;;;;;;;1.23;1.03;;;7.30;99.90;;;;;;5002919;28;20218;-94
2022/11/27 09:34:50;;;;;;;1.07;1.07;;;7.30;99.90;;;;;;5021460;28;20226;-94
2022/11/27 09:37:16;;;;;;;1.83;1.67;;;7.30;99.90;;;;;;5035965;28;20218;-92
2022/11/27 09:39:42;;;;;;;1.47;1.10;;;7.30;99.90;;;;;;5038201;28;20305;-94
2022/11/27 09:42:17;;;;;;;1.03;0.87;;;7.30;99.90;;;;;;5019796;28;20195;-93
2022/11/27 09:44:47;;;;;;;1.43;1.37;;;7.30;99.90;;;;;;5034660;28;20213;-95
2022/11/27 09:47:55;;;;;;;0.40;0.40;;;7.40;99.90;;;;;;5038334;28;20230;-95
2022/11/27 09:50:49;;;;;;;2.23;2.03;;;7.40;99.90;;;;;;5029514;28;20347;-94
2022/11/27 09:53:28;;;;;;;2.17;1.60;;;7.40;99.90;;;;;;5050878;28;20214;-94
2022/11/27 09:55:57;;;;;;;2.10;1.93;;;7.40;99.90;;;;;;5037532;28;20215;-94
2022/11/27 09:58:37;;;;;;;4.33;1.63;;;7.40;99.90;;;;;;5035798;28;20250;-95
2022/11/27 10:01:31;;;;;;;3.00;1.53;;;7.40;99.90;;;;;;5036567;28;20214;-93
2022/11/27 10:03:59;;;;;;;3.00;1.27;;;7.40;99.90;;;;;;5033921;28;20279;-94
2022/11/27 10:06:26;;;;;;;1.20;0.80;;;7.40;99.90;;;;;;5023914;28;20935;-95
2022/11/27 10:09:05;;;;;;;1.50;1.40;;;7.40;99.90;;;;;;5038017;28;20190;-94
2022/11/27 10:12:03;;;;;;;0.93;0.93;;;7.40;99.90;;;;;;5049300;28;20226;-94
2022/11/27 10:15:02;;;;;;;2.00;1.80;;;7.30;99.90;;;;;;5048838;28;20214;-95
2022/11/27 10:18:09;;;;;;;1.23;0.90;;;7.30;99.90;;;;;;5047337;28;20213;-96
2022/11/27 10:20:47;;;;;;;1.53;1.37;;;7.30;99.90;;;;;;5018725;28;20235;-93
2022/11/27 10:23:52;;;;;;;1.40;1.30;;;7.40;99.90;;;;;;5042293;28;20226;-96
2022/11/27 10:26:49;;;;;;;0.80;0.80;;;7.40;99.90;;;;;;5037997;28;20221;-96
2022/11/27 10:30:07;;;;;;;1.63;1.17;;;7.40;99.90;;;;;;5052549;28;20218;-95
2022/11/27 10:32:46;;;;;;;0.93;0.93;;;7.30;99.90;;;;;;5025873;28;20252;-94
2022/11/27 10:35:19;;;;;;;3.13;1.80;;;7.30;99.90;;;;;;5028850;28;20695;-96
2022/11/27 10:38:02;;;;;;;1.07;1.00;;;7.30;99.90;;;;;;5029668;28;20310;-95
2022/11/27 10:41:00;;;;;;;1.00;1.00;;;7.40;99.90;;;;;;5037994;28;20392;-96
2022/11/27 10:43:42;;;;;;;0.53;0.53;;;7.40;99.90;;;;;;5026847;28;20245;-94
2022/11/27 10:46:15;;;;;;;4.37;1.03;;;7.40;99.90;;;;;;5034049;28;20233;-96
2022/11/27 10:48:50;;;;;;;4.80;2.13;;;7.40;99.90;;;;;;5058146;28;20187;-96
2022/11/27 10:51:37;;;;;;;2.07;1.97;;;7.40;99.90;;;;;;5056093;28;20229;-96
2022/11/27 10:54:06;;;;;;;0.70;0.67;;;7.40;99.90;;;;;;5061607;23;20201;-88
2022/11/27 10:56:42;;;;;;;0.40;0.40;;;7.40;99.90;;;;;;5018212;28;20213;-85
2022/11/27 10:59:20;;;;;;;3.77;1.60;;;7.40;99.90;;;;;;5038544;28;20249;-86
2022/11/27 11:01:52;;;;;;;2.20;1.93;;;7.50;99.90;;;;;;5032911;28;20535;-88
2022/11/27 11:04:26;;;;;;;1.50;1.23;;;7.50;99.90;;;;;;4998051;28;21115;-84
2022/11/27 11:06:52;;;;;;;0.77;0.77;;;7.50;99.90;;;;;;5031423;28;20233;-87
2022/11/27 11:09:29;;;;;;;2.63;1.23;;;7.50;99.90;;;;;;4994882;28;20687;-87
2022/11/27 11:12:17;;;;;;;1.60;0.60;;;7.50;99.90;;;;;;5015697;28;20707;-86
2022/11/27 11:14:51;;;;;;;2.60;2.30;;;7.50;99.90;;;;;;5014742;28;20215;-87
2022/11/27 11:17:23;;;;;;;1.17;1.03;;;7.60;99.90;;;;;;5032397;28;20417;-86
2022/11/27 11:19:48;;;;;;;2.67;2.47;;;7.60;99.90;;;;;;5032131;28;20223;-86
2022/11/27 11:22:15;;;;;;;1.77;1.50;;;7.60;99.90;;;;;;5016652;28;20226;-84
2022/11/27 11:24:47;;;;;;;2.87;1.10;;;7.60;99.90;;;;;;5034377;28;20309;-86
2022/11/27 11:27:31;;;;;;;1.03;1.03;;;7.70;99.90;;;;;;5032041;28;20207;-85
2022/11/27 11:30:25;;;;;;;8.33;1.90;;;7.70;99.90;;;;;;5015909;28;20636;-86
2022/11/27 11:33:01;;;;;;;1.20;0.93;;;7.70;99.90;;;;;;5026829;28;20229;-85
2022/11/27 11:35:29;;;;;;;1.60;1.50;;;7.70;99.90;;;;;;5015993;28;20374;-84
2022/11/27 11:37:56;;;;;;;1.90;1.70;;;7.70;99.90;;;;;;5026090;28;20210;-86
2022/11/27 11:40:22;;;;;;;2.87;1.93;;;7.70;99.90;;;;;;5036757;28;20211;-85
2022/11/27 11:43:05;;;;;;;2.17;1.97;;;7.70;99.90;;;;;;5037548;28;20754;-85
2022/11/27 11:45:33;;;;;;;2.20;2.00;;;7.70;99.90;;;;;;5036691;28;20262;-84
2022/11/27 11:48:23;;;;;;;1.40;1.40;;;7.70;99.90;;;;;;5028272;28;20209;-85
2022/11/27 11:50:59;;;;;;;3.27;3.07;;;7.70;99.90;;;;;;5015293;28;20250;-86
2022/11/27 11:53:41;;;;;;;2.77;1.97;;;7.70;99.90;;;;;;5019669;28;20313;-87
2022/11/27 11:56:32;;;;;;;4.37;1.63;;;7.70;99.90;;;;;;5019148;28;20238;-87
2022/11/27 11:59:07;;;;;;;1.87;1.77;;;7.70;99.90;;;;;;5015756;28;20990;-88
2022/11/27 12:01:44;;;;;;;1.33;1.27;;;7.70;99.90;;;;;;5017939;28;20218;-86
2022/11/27 12:04:21;;;;;;;1.03;0.93;;;7.70;99.90;;;;;;5036185;28;20213;-87
2022/11/27 12:07:24;;;;;;;2.03;1.83;;;7.70;99.90;;;;;;5017500;28;20233;-87
2022/11/27 12:09:58;;;;;;;4.43;2.80;;;7.80;99.90;;;;;;5034289;28;20261;-86
2022/11/27 12:12:27;;;;;;;1.80;1.43;;;7.80;99.90;;;;;;5033825;28;20189;-88
2022/11/27 12:15:19;;;;;;;1.17;0.97;;;7.80;99.90;;;;;;5019126;28;20265;-85
2022/11/27 12:18:09;;;;;;;2.53;2.33;;;7.70;99.90;;;;;;5037020;28;20305;-86
2022/11/27 12:20:53;;;;;;;0.93;0.93;;;7.70;99.90;;;;;;5038311;28;20226;-88
2022/11/27 12:23:19;;;;;;;6.30;1.70;;;7.70;99.90;;;;;;5021107;28;20213;-83
2022/11/27 12:26:05;;;;;;;3.03;2.27;;;7.70;99.90;;;;;;5018215;28;20248;-84
2022/11/27 12:28:58;;;;;;;2.53;1.30;;;7.70;99.90;;;;;;5017351;28;20220;-83
2022/11/27 12:31:43;;;;;;;1.30;1.20;;;7.70;99.90;;;;;;5019711;28;20216;-83
2022/11/27 12:34:34;;;;;;;3.10;2.30;;;7.70;99.90;;;;;;5018549;28;20216;-84
2022/11/27 12:37:20;;;;;;;1.27;1.17;;;7.70;99.90;;;;;;5036336;28;20221;-87
2022/11/27 12:40:13;;;;;;;1.73;1.10;;;7.70;99.90;;;;;;5034563;28;20344;-88
2022/11/27 12:42:55;;;;;;;5.50;2.73;;;7.70;99.90;;;;;;5017779;28;20222;-85
2022/11/27 12:45:54;;;;;;;8.80;2.47;;;7.70;99.90;;;;;;5037133;28;20300;-86
2022/11/27 12:48:29;;;;;;;1.30;1.20;;;7.70;99.90;;;;;;5035201;28;20343;-88
2022/11/27 12:51:02;;;;;;;1.63;1.53;;;7.70;99.90;;;;;;5034217;28;20253;-84
2022/11/27 12:53:34;;;;;;;3.67;1.73;;;7.80;99.90;;;;;;5018798;28;20230;-83
2022/11/27 12:56:32;;;;;;;1.67;1.57;;;7.80;99.90;;;;;;5020991;28;20261;-85
2022/11/27 12:59:33;;;;;;;1.23;1.13;;;7.80;99.90;;;;;;5022228;28;20256;-86
2022/11/27 13:02:26;;;;;;;2.17;1.03;;;7.80;99.90;;;;;;5002882;28;20233;-83
2022/11/27 13:05:04;;;;;;;0.57;0.57;;;7.90;99.90;;;;;;5042570;28;20245;-85
2022/11/27 13:07:38;;;;;;;4.87;2.97;;;7.90;99.90;;;;;;5022742;28;20210;-83
2022/11/27 13:10:39;;;;;;;2.13;1.83;;;7.90;99.90;;;;;;5038341;28;20287;-85
2022/11/27 13:13:22;;;;;;;3.00;2.47;;;7.90;99.90;;;;;;5043172;28;20688;-87
2022/11/27 13:16:04;;;;;;;2.20;2.00;;;7.90;99.90;;;;;;5024106;28;20226;-85
2022/11/27 13:18:32;;;;;;;2.50;2.30;;;7.90;99.90;;;;;;5023894;28;20182;-86
2022/11/27 13:21:02;;;;;;;2.87;1.50;;;7.90;99.90;;;;;;5028025;28;20199;-89
2022/11/27 13:23:32;;;;;;;4.73;1.97;;;7.90;99.90;;;;;;5033793;28;20218;-84